Time;durP1;ratioP1;P1;durP2;ratioP2;P2;SDS_P1;SDS_P2;PMS_P1;PMS_P2;Temp;Humidity;BMP_temperature;BMP_pressure;BME280_temperature;BME280_humidity;BME280_pressure;Samples;Min_cycle;Max_cycle;Signal;HPM_P1;HPM_P2
2020/12/27 00:02:15;;;;;;;8.55;7.75;;;5.90;94.00;;;;;;5024867;28;20056;-86
2020/12/27 00:04:41;;;;;;;8.93;8.02;;;6.00;94.00;;;;;;5024104;28;20653;-86
2020/12/27 00:07:09;;;;;;;8.73;7.93;;;5.90;94.00;;;;;;5028452;28;20056;-85
2020/12/27 00:09:36;;;;;;;9.40;8.50;;;5.90;93.90;;;;;;5029573;28;20505;-86
2020/12/27 00:12:02;;;;;;;9.25;8.43;;;6.00;94.00;;;;;;5027541;28;20053;-85
2020/12/27 00:14:28;;;;;;;8.35;7.57;;;5.90;94.00;;;;;;5029295;28;20045;-82
2020/12/27 00:16:54;;;;;;;8.50;7.70;;;6.00;93.90;;;;;;5026806;28;20049;-86
2020/12/27 00:19:20;;;;;;;9.05;8.25;;;6.00;94.10;;;;;;5029157;28;20046;-85
2020/12/27 00:21:45;;;;;;;9.30;8.50;;;6.00;93.80;;;;;;5028316;28;20485;-85
2020/12/27 00:24:11;;;;;;;8.77;7.97;;;6.00;93.70;;;;;;5028652;28;20554;-86
2020/12/27 00:26:37;;;;;;;8.52;7.75;;;6.00;93.70;;;;;;5028808;28;20045;-84
2020/12/27 00:29:04;;;;;;;9.27;8.38;;;6.00;93.60;;;;;;5029094;28;20050;-83
2020/12/27 00:31:30;;;;;;;8.98;8.07;;;6.00;93.50;;;;;;5043072;28;20045;-83
2020/12/27 00:33:56;;;;;;;8.57;7.70;;;6.00;93.50;;;;;;5030362;28;20489;-87
2020/12/27 00:36:22;;;;;;;8.07;7.38;;;6.00;93.30;;;;;;5028235;28;20064;-85
2020/12/27 00:38:48;;;;;;;8.68;7.88;;;6.00;93.30;;;;;;5028066;28;20057;-85
2020/12/27 00:41:25;;;;;;;8.55;7.75;;;6.00;93.20;;;;;;5029086;28;20053;-85
2020/12/27 00:43:52;;;;;;;8.20;7.43;;;6.00;93.10;;;;;;5038547;28;20655;-86
2020/12/27 00:46:19;;;;;;;8.15;7.45;;;6.00;93.00;;;;;;5027884;28;20049;-87
2020/12/27 00:48:46;;;;;;;8.75;7.93;;;6.00;92.90;;;;;;5027273;28;20127;-88
2020/12/27 00:51:12;;;;;;;7.78;6.90;;;6.00;93.20;;;;;;5028410;28;20509;-85
2020/12/27 00:53:38;;;;;;;8.20;7.40;;;6.10;92.80;;;;;;5035467;28;20080;-85
2020/12/27 00:56:04;;;;;;;7.80;7.10;;;6.10;92.80;;;;;;5027344;28;20045;-86
2020/12/27 00:58:31;;;;;;;8.00;7.30;;;6.00;92.70;;;;;;5028939;28;20037;-83
2020/12/27 01:00:59;;;;;;;8.25;7.55;;;6.00;92.80;;;;;;5029190;28;20049;-86
2020/12/27 01:03:25;;;;;;;7.68;7.00;;;6.00;92.70;;;;;;5027746;28;21054;-86
2020/12/27 01:05:52;;;;;;;7.55;6.80;;;6.10;92.50;;;;;;5020968;28;20696;-85
2020/12/27 01:08:18;;;;;;;7.82;7.13;;;6.00;92.60;;;;;;5028723;28;20052;-86
2020/12/27 01:10:43;;;;;;;7.28;6.57;;;6.00;92.60;;;;;;5028452;28;20397;-87
2020/12/27 01:13:10;;;;;;;6.40;5.80;;;6.00;92.50;;;;;;5026707;28;20471;-87
2020/12/27 01:15:38;;;;;;;7.03;6.43;;;6.00;92.40;;;;;;5011577;28;20061;-85
2020/12/27 01:18:05;;;;;;;7.18;6.47;;;6.00;92.40;;;;;;5029974;28;20073;-85
2020/12/27 01:20:31;;;;;;;6.32;5.78;;;6.00;92.70;;;;;;5027493;28;20054;-82
2020/12/27 01:22:57;;;;;;;7.03;6.32;;;6.10;92.30;;;;;;5027373;28;20398;-86
2020/12/27 01:25:23;;;;;;;6.97;6.38;;;6.00;92.30;;;;;;5026235;28;20061;-86
2020/12/27 01:27:49;;;;;;;6.60;6.00;;;6.00;92.20;;;;;;5025847;28;20137;-87
2020/12/27 01:30:15;;;;;;;6.53;5.93;;;6.00;92.20;;;;;;5030582;28;20064;-85
2020/12/27 01:32:41;;;;;;;6.50;5.85;;;6.00;92.00;;;;;;5028766;28;20155;-84
2020/12/27 01:35:07;;;;;;;6.50;5.90;;;6.00;92.00;;;;;;5028358;28;20049;-84
2020/12/27 01:37:33;;;;;;;6.00;5.40;;;6.00;92.00;;;;;;5026919;28;20045;-82
2020/12/27 01:39:59;;;;;;;5.68;5.18;;;6.00;91.90;;;;;;5035160;28;20052;-86
2020/12/27 01:42:25;;;;;;;5.45;4.95;;;6.00;91.80;;;;;;5025654;28;20076;-85
2020/12/27 01:44:51;;;;;;;5.55;5.05;;;6.00;91.90;;;;;;5027836;28;20653;-85
2020/12/27 01:47:21;;;;;;;5.40;4.90;;;6.00;91.90;;;;;;5028382;28;20057;-84
2020/12/27 01:49:48;;;;;;;5.90;5.30;;;5.90;91.90;;;;;;5028860;28;20555;-84
2020/12/27 01:52:14;;;;;;;5.47;4.97;;;5.90;92.00;;;;;;5025287;28;20421;-85
2020/12/27 01:54:40;;;;;;;5.35;4.85;;;5.90;91.60;;;;;;5027523;28;20051;-86
2020/12/27 01:57:45;;;;;;;5.68;5.18;;;5.90;91.70;;;;;;5028322;28;20046;-86
2020/12/27 02:00:11;;;;;;;4.85;4.38;;;6.00;91.70;;;;;;5013424;28;20046;-84
2020/12/27 02:02:37;;;;;;;4.75;4.35;;;5.90;91.90;;;;;;5027780;28;20081;-85
2020/12/27 02:05:03;;;;;;;4.70;4.30;;;5.80;91.70;;;;;;5027423;28;20076;-85
2020/12/27 02:07:29;;;;;;;4.95;4.43;;;5.80;91.70;;;;;;5027992;28;20049;-86
2020/12/27 02:09:59;;;;;;;5.13;4.63;;;5.80;91.80;;;;;;5027696;28;20397;-85
2020/12/27 02:12:25;;;;;;;5.18;4.68;;;5.90;91.80;;;;;;5027231;28;20042;-84
2020/12/27 02:14:53;;;;;;;4.85;4.30;;;5.80;91.70;;;;;;5028233;28;20049;-85
2020/12/27 02:17:19;;;;;;;4.85;4.45;;;5.80;91.60;;;;;;5028283;28;20064;-84
2020/12/27 02:19:45;;;;;;;4.88;4.43;;;5.80;91.70;;;;;;5040577;28;20103;-85
2020/12/27 02:22:11;;;;;;;4.88;4.40;;;5.80;91.60;;;;;;5028273;28;20049;-84
2020/12/27 02:24:36;;;;;;;5.00;4.50;;;5.80;91.70;;;;;;5027718;28;20076;-86
2020/12/27 02:27:04;;;;;;;4.43;4.03;;;5.80;91.60;;;;;;5026962;28;20073;-83
2020/12/27 02:29:32;;;;;;;4.82;4.43;;;5.80;91.60;;;;;;5026589;28;20054;-83
2020/12/27 02:31:58;;;;;;;5.38;4.30;;;5.80;91.60;;;;;;5027166;28;20428;-86
2020/12/27 02:34:24;;;;;;;4.38;3.97;;;5.70;91.60;;;;;;5033532;28;20144;-85
2020/12/27 02:36:50;;;;;;;4.40;4.00;;;5.70;91.70;;;;;;5027849;28;20046;-85
2020/12/27 02:39:19;;;;;;;4.50;3.90;;;5.70;91.50;;;;;;5028284;28;20057;-85
2020/12/27 02:41:48;;;;;;;4.35;3.95;;;5.70;91.40;;;;;;5018917;28;20045;-84
2020/12/27 02:44:14;;;;;;;5.35;3.78;;;5.70;91.50;;;;;;5027737;28;20041;-85
2020/12/27 02:46:40;;;;;;;4.15;3.70;;;5.70;91.50;;;;;;5028521;28;20049;-85
2020/12/27 02:49:06;;;;;;;4.40;4.00;;;5.70;91.40;;;;;;5029771;28;20052;-83
2020/12/27 02:51:31;;;;;;;4.40;4.00;;;5.60;91.50;;;;;;5043052;28;20132;-82
2020/12/27 02:53:58;;;;;;;4.70;4.30;;;5.60;91.50;;;;;;5027036;28;20543;-85
2020/12/27 02:56:28;;;;;;;4.53;4.13;;;5.60;91.50;;;;;;5026513;28;20096;-85
2020/12/27 02:58:57;;;;;;;4.75;3.97;;;5.60;91.60;;;;;;5027624;28;20037;-85
2020/12/27 03:01:23;;;;;;;5.15;4.03;;;5.60;91.40;;;;;;5024813;28;20490;-85
2020/12/27 03:03:50;;;;;;;4.20;3.80;;;5.50;91.40;;;;;;5025705;28;20120;-84
2020/12/27 03:06:18;;;;;;;4.72;4.32;;;5.60;91.40;;;;;;5028591;28;20045;-83
2020/12/27 03:08:44;;;;;;;4.70;4.25;;;5.60;91.40;;;;;;5025727;28;20069;-84
2020/12/27 03:11:10;;;;;;;4.90;3.95;;;5.60;91.50;;;;;;5027140;28;20073;-81
2020/12/27 03:13:36;;;;;;;4.40;4.00;;;5.50;91.40;;;;;;5028098;28;20045;-83
2020/12/27 03:16:06;;;;;;;5.03;4.47;;;5.50;91.50;;;;;;5027217;28;20099;-84
2020/12/27 03:18:32;;;;;;;4.78;4.38;;;5.50;91.50;;;;;;5027639;28;20049;-84
2020/12/27 03:20:58;;;;;;;4.22;3.83;;;5.50;91.40;;;;;;5027912;28;20041;-85
2020/12/27 03:23:24;;;;;;;4.65;4.07;;;5.40;91.40;;;;;;5026440;28;20041;-86
2020/12/27 03:25:50;;;;;;;4.53;4.13;;;5.40;91.30;;;;;;5022509;28;20507;-84
2020/12/27 03:28:16;;;;;;;4.25;3.55;;;5.50;91.30;;;;;;5028331;28;20535;-85
2020/12/27 03:30:43;;;;;;;5.53;4.00;;;5.50;91.30;;;;;;5023430;28;20081;-83
2020/12/27 03:33:10;;;;;;;4.95;4.32;;;5.40;91.30;;;;;;5029565;28;20048;-84
2020/12/27 03:35:36;;;;;;;4.38;3.97;;;5.40;91.30;;;;;;5035140;28;20049;-81
2020/12/27 03:38:02;;;;;;;4.70;3.78;;;5.40;91.40;;;;;;5027683;28;20048;-86
2020/12/27 03:40:27;;;;;;;4.75;4.20;;;5.40;91.40;;;;;;5026185;28;20485;-85
2020/12/27 03:42:53;;;;;;;4.50;4.10;;;5.30;91.60;;;;;;5025481;28;20049;-85
2020/12/27 03:45:19;;;;;;;4.65;4.18;;;5.30;91.70;;;;;;5043435;28;20049;-83
2020/12/27 03:47:45;;;;;;;5.80;4.40;;;5.30;91.80;;;;;;5036297;28;20049;-85
2020/12/27 03:50:11;;;;;;;4.80;4.20;;;5.20;91.90;;;;;;5025701;28;20048;-83
2020/12/27 03:52:36;;;;;;;4.55;3.85;;;5.20;92.00;;;;;;5028327;28;20041;-83
2020/12/27 03:55:02;;;;;;;5.30;4.30;;;5.20;92.10;;;;;;5042216;28;20037;-84
2020/12/27 03:57:28;;;;;;;4.70;4.30;;;5.20;92.20;;;;;;5041682;28;20095;-84
2020/12/27 03:59:54;;;;;;;4.60;4.03;;;5.10;92.00;;;;;;5027434;28;20053;-84
2020/12/27 04:02:20;;;;;;;5.03;4.53;;;5.10;92.20;;;;;;5027029;28;20130;-84
2020/12/27 04:04:46;;;;;;;4.40;4.00;;;5.10;92.30;;;;;;5040683;28;20045;-83
2020/12/27 04:07:12;;;;;;;5.15;4.30;;;5.00;92.30;;;;;;5027892;28;20050;-83
2020/12/27 04:09:37;;;;;;;5.00;4.28;;;5.00;92.50;;;;;;5027569;28;20049;-82
2020/12/27 04:12:03;;;;;;;5.63;4.20;;;5.00;92.50;;;;;;5025577;28;20128;-84
2020/12/27 04:14:29;;;;;;;5.07;4.05;;;5.00;92.60;;;;;;5040431;28;20047;-83
2020/12/27 04:16:55;;;;;;;5.25;4.30;;;5.00;92.60;;;;;;5025201;28;20187;-84
2020/12/27 04:19:21;;;;;;;4.55;4.03;;;5.00;92.60;;;;;;5034546;28;20517;-83
2020/12/27 04:21:47;;;;;;;4.47;3.75;;;4.90;92.70;;;;;;5022906;28;20057;-83
2020/12/27 04:24:14;;;;;;;5.45;4.55;;;4.90;92.70;;;;;;5040259;28;20049;-83
2020/12/27 04:26:40;;;;;;;4.35;3.95;;;4.90;92.70;;;;;;5036616;28;20077;-84
2020/12/27 04:29:06;;;;;;;3.92;3.53;;;4.90;92.70;;;;;;5028064;28;20107;-84
2020/12/27 04:31:32;;;;;;;3.58;3.28;;;4.90;92.60;;;;;;5026793;28;20054;-84
2020/12/27 04:33:58;;;;;;;3.92;3.53;;;4.90;92.60;;;;;;5038914;28;20045;-84
2020/12/27 04:36:24;;;;;;;3.53;3.20;;;5.00;92.90;;;;;;5039459;28;20057;-84
2020/12/27 04:38:50;;;;;;;3.20;2.90;;;4.90;92.60;;;;;;5024298;28;20100;-84
2020/12/27 04:41:18;;;;;;;4.03;3.28;;;4.90;92.60;;;;;;5040499;28;20057;-85
2020/12/27 04:43:48;;;;;;;4.35;3.10;;;4.90;92.60;;;;;;5024555;28;20053;-84
2020/12/27 04:46:15;;;;;;;3.40;3.10;;;4.90;92.70;;;;;;5025941;28;20057;-85
2020/12/27 04:48:43;;;;;;;3.88;3.00;;;4.80;92.70;;;;;;5024637;28;20524;-84
2020/12/27 04:51:11;;;;;;;3.90;2.70;;;4.80;92.70;;;;;;5038851;28;20038;-85
2020/12/27 04:53:38;;;;;;;4.18;3.03;;;4.80;92.80;;;;;;5026294;28;20056;-81
2020/12/27 04:56:06;;;;;;;3.65;2.72;;;4.80;92.80;;;;;;5029377;28;20041;-85
2020/12/27 04:58:32;;;;;;;2.72;2.50;;;4.80;92.80;;;;;;5029442;28;20049;-83
2020/12/27 05:01:00;;;;;;;2.70;2.45;;;4.80;92.70;;;;;;5028096;28;20127;-84
2020/12/27 05:03:27;;;;;;;3.47;2.50;;;4.80;92.70;;;;;;5016438;28;20073;-84
2020/12/27 05:05:55;;;;;;;2.95;2.63;;;4.70;92.90;;;;;;5023858;28;20046;-84
2020/12/27 05:08:21;;;;;;;2.55;2.35;;;4.70;92.80;;;;;;5030850;28;20053;-84
2020/12/27 05:10:47;;;;;;;2.40;2.20;;;4.70;92.80;;;;;;5027893;28;20053;-84
2020/12/27 05:13:15;;;;;;;2.63;2.30;;;4.70;92.80;;;;;;5030540;28;20042;-83
2020/12/27 05:15:44;;;;;;;2.53;1.98;;;4.60;92.70;;;;;;5029628;28;20238;-82
2020/12/27 05:18:11;;;;;;;2.10;1.90;;;4.60;92.80;;;;;;5027925;28;20056;-84
2020/12/27 05:20:42;;;;;;;2.30;2.00;;;4.60;92.90;;;;;;5025563;28;20091;-81
2020/12/27 05:23:09;;;;;;;2.15;1.95;;;4.60;92.80;;;;;;5026739;28;20048;-83
2020/12/27 05:25:40;;;;;;;2.58;2.17;;;4.60;92.80;;;;;;5028570;28;20099;-84
2020/12/27 05:28:07;;;;;;;2.65;1.70;;;4.60;92.80;;;;;;5048901;28;20092;-84
2020/12/27 05:30:33;;;;;;;1.77;1.60;;;4.60;92.90;;;;;;5032174;28;20508;-83
2020/12/27 05:32:59;;;;;;;2.13;1.80;;;4.60;92.90;;;;;;5037828;28;20050;-84
2020/12/27 05:35:25;;;;;;;1.90;1.67;;;4.60;92.90;;;;;;5027219;28;20136;-84
2020/12/27 05:37:52;;;;;;;1.92;1.73;;;4.60;92.90;;;;;;5019620;28;20497;-85
2020/12/27 05:40:18;;;;;;;2.47;1.70;;;4.60;92.90;;;;;;5056085;28;20397;-85
2020/12/27 05:42:45;;;;;;;1.88;1.67;;;4.60;92.80;;;;;;5027637;28;20128;-84
2020/12/27 05:45:19;;;;;;;1.80;1.60;;;4.60;92.80;;;;;;5028263;28;20129;-83
2020/12/27 05:47:46;;;;;;;2.10;1.60;;;4.60;92.90;;;;;;5047142;28;20037;-84
2020/12/27 05:50:17;;;;;;;2.05;1.63;;;4.60;92.80;;;;;;5028469;28;20045;-85
2020/12/27 05:52:47;;;;;;;1.70;1.60;;;4.60;92.90;;;;;;5026246;28;20048;-85
2020/12/27 05:55:18;;;;;;;1.70;1.55;;;4.60;92.90;;;;;;5043543;28;20099;-86
2020/12/27 05:57:50;;;;;;;1.50;1.40;;;4.50;92.90;;;;;;5044358;28;20132;-86
2020/12/27 06:00:24;;;;;;;1.60;1.50;;;4.60;92.90;;;;;;5028281;28;20049;-86
2020/12/27 06:02:58;;;;;;;1.67;1.50;;;4.60;92.90;;;;;;5040125;28;20073;-88
2020/12/27 06:05:51;;;;;;;1.52;1.40;;;4.60;93.00;;;;;;5043311;28;20497;-85
2020/12/27 06:09:00;;;;;;;1.65;1.42;;;4.60;93.00;;;;;;5016764;28;20136;-86
2020/12/27 06:11:53;;;;;;;1.50;1.40;;;4.60;93.10;;;;;;5027579;28;20059;-87
2020/12/27 06:14:55;;;;;;;1.38;1.27;;;4.70;93.10;;;;;;5017229;28;20450;-85
2020/12/27 06:17:47;;;;;;;1.95;1.30;;;4.70;93.10;;;;;;5017927;28;20107;-82
2020/12/27 06:20:17;;;;;;;1.50;1.30;;;4.70;93.10;;;;;;5010742;28;20138;-84
2020/12/27 06:22:48;;;;;;;1.50;1.40;;;4.70;93.00;;;;;;5026385;28;20053;-83
2020/12/27 06:25:14;;;;;;;1.50;1.40;;;4.70;93.00;;;;;;5037077;28;20049;-83
2020/12/27 06:27:40;;;;;;;1.67;1.38;;;4.70;93.10;;;;;;5044466;28;20037;-82
2020/12/27 06:30:15;;;;;;;1.38;1.20;;;4.70;93.00;;;;;;5027671;28;20469;-86
2020/12/27 06:32:45;;;;;;;1.38;1.27;;;4.70;93.00;;;;;;5025780;28;20099;-82
2020/12/27 06:35:11;;;;;;;1.23;1.13;;;4.80;93.00;;;;;;5039994;28;20080;-83
2020/12/27 06:37:42;;;;;;;1.45;1.20;;;4.70;93.00;;;;;;5029890;28;20061;-85
2020/12/27 06:40:08;;;;;;;1.50;1.40;;;4.70;93.00;;;;;;5028420;28;20057;-85
2020/12/27 06:42:34;;;;;;;1.45;1.20;;;4.80;93.10;;;;;;5030340;28;20050;-85
2020/12/27 06:45:00;;;;;;;1.77;1.10;;;4.80;93.00;;;;;;5028207;28;20042;-86
2020/12/27 06:47:50;;;;;;;1.60;1.10;;;4.80;93.00;;;;;;5027774;28;20391;-85
2020/12/27 06:50:18;;;;;;;1.17;1.00;;;4.80;93.00;;;;;;5039987;28;20054;-86
2020/12/27 06:52:44;;;;;;;1.10;1.00;;;4.80;93.00;;;;;;5041288;28;20053;-83
2020/12/27 06:55:11;;;;;;;1.10;1.00;;;4.80;93.00;;;;;;5025472;28;20481;-85
2020/12/27 06:57:47;;;;;;;1.33;0.90;;;4.80;93.00;;;;;;5028439;28;20537;-85
2020/12/27 07:00:25;;;;;;;1.27;1.00;;;4.80;93.00;;;;;;5026191;28;20050;-85
2020/12/27 07:03:10;;;;;;;1.85;1.00;;;4.90;93.00;;;;;;5032152;28;20045;-85
2020/12/27 07:05:38;;;;;;;0.80;0.80;;;4.90;93.00;;;;;;5023900;28;20056;-85
2020/12/27 07:08:06;;;;;;;1.13;0.98;;;4.90;92.90;;;;;;5029024;28;20219;-86
2020/12/27 07:10:35;;;;;;;1.40;0.70;;;4.90;92.90;;;;;;5027703;28;20052;-85
2020/12/27 07:13:09;;;;;;;0.73;0.73;;;4.90;92.80;;;;;;5025209;28;20053;-85
2020/12/27 07:15:44;;;;;;;0.70;0.70;;;5.00;93.00;;;;;;5025928;28;20060;-84
2020/12/27 07:18:10;;;;;;;;;;;5.00;93.00;;;;;;5027249;28;20393;-84
2020/12/27 07:20:42;;;;;;;0.75;0.75;;;4.90;93.00;;;;;;5028140;28;19924;-83
2020/12/27 07:23:15;;;;;;;1.45;0.68;;;5.00;93.00;;;;;;5028762;28;20052;-85
2020/12/27 07:25:42;;;;;;;0.70;0.70;;;5.00;93.00;;;;;;5024584;28;20541;-81
2020/12/27 07:28:09;;;;;;;0.80;0.70;;;5.00;93.10;;;;;;5028691;28;20054;-85
2020/12/27 07:30:36;;;;;;;0.73;0.60;;;5.00;93.10;;;;;;5023643;28;20467;-84
2020/12/27 07:33:09;;;;;;;1.30;0.60;;;5.00;93.00;;;;;;5025624;28;20049;-85
2020/12/27 07:35:35;;;;;;;0.85;0.65;;;5.00;93.00;;;;;;5024434;28;20136;-84
2020/12/27 07:38:02;;;;;;;0.60;0.60;;;5.10;93.00;;;;;;5027463;28;20076;-86
2020/12/27 07:40:34;;;;;;;0.60;0.60;;;5.10;93.00;;;;;;5028394;28;20041;-88
2020/12/27 07:43:10;;;;;;;0.60;0.60;;;5.10;93.10;;;;;;5025097;28;20041;-85
2020/12/27 07:45:36;;;;;;;0.60;0.60;;;5.10;93.10;;;;;;5026796;28;20045;-84
2020/12/27 07:48:01;;;;;;;0.50;0.50;;;5.10;93.10;;;;;;5039970;28;20177;-84
2020/12/27 07:50:27;;;;;;;0.68;0.60;;;5.10;93.00;;;;;;5028629;28;20132;-84
2020/12/27 07:52:59;;;;;;;0.50;0.50;;;5.10;93.10;;;;;;5024855;28;20100;-87
2020/12/27 07:55:34;;;;;;;0.40;0.40;;;5.10;93.10;;;;;;5026168;28;20176;-85
2020/12/27 07:58:05;;;;;;;0.50;0.50;;;5.20;93.00;;;;;;5039397;28;20049;-84
2020/12/27 08:00:37;;;;;;;0.40;0.40;;;5.20;93.00;;;;;;5025800;28;22050;-85
2020/12/27 08:03:07;;;;;;;0.45;0.40;;;5.20;92.90;;;;;;5020667;28;20678;-83
2020/12/27 08:05:37;;;;;;;1.17;0.43;;;5.20;92.90;;;;;;5027520;28;20041;-84
2020/12/27 08:08:09;;;;;;;0.40;0.40;;;5.30;92.90;;;;;;5038652;28;20065;-88
2020/12/27 08:10:36;;;;;;;0.47;0.40;;;5.30;92.80;;;;;;5017485;28;20490;-87
2020/12/27 08:13:04;;;;;;;0.45;0.40;;;5.30;92.90;;;;;;5024359;28;20064;-86
2020/12/27 08:15:35;;;;;;;0.40;0.40;;;5.30;92.90;;;;;;5025741;28;20091;-85
2020/12/27 08:18:06;;;;;;;0.30;0.30;;;5.40;92.80;;;;;;5034415;28;20128;-87
2020/12/27 08:20:42;;;;;;;0.68;0.38;;;5.40;92.90;;;;;;5041792;28;20172;-86
2020/12/27 08:23:08;;;;;;;0.30;0.30;;;5.40;92.90;;;;;;5038362;28;20456;-85
2020/12/27 08:25:36;;;;;;;0.30;0.30;;;5.40;92.70;;;;;;5023400;28;20049;-86
2020/12/27 08:28:05;;;;;;;0.30;0.30;;;5.40;92.80;;;;;;5028953;28;20065;-84
2020/12/27 08:30:32;;;;;;;0.75;0.40;;;5.40;92.80;;;;;;5035364;28;20065;-84
2020/12/27 08:33:03;;;;;;;0.30;0.30;;;5.40;93.10;;;;;;5026493;28;20076;-87
2020/12/27 08:35:29;;;;;;;0.45;0.30;;;5.40;92.90;;;;;;5042738;28;20091;-86
2020/12/27 08:38:03;;;;;;;0.30;0.30;;;5.40;92.90;;;;;;5031749;28;20472;-86
2020/12/27 08:40:36;;;;;;;0.38;0.32;;;5.40;92.90;;;;;;5034820;28;20128;-88
2020/12/27 08:43:08;;;;;;;0.30;0.30;;;5.40;92.90;;;;;;5037352;28;20682;-87
2020/12/27 08:45:37;;;;;;;0.50;0.38;;;5.40;92.90;;;;;;5046103;28;20486;-86
2020/12/27 08:48:29;;;;;;;0.38;0.30;;;5.40;92.90;;;;;;5027341;28;20042;-86
2020/12/27 08:50:56;;;;;;;0.20;0.20;;;5.40;92.70;;;;;;5018230;28;20053;-87
2020/12/27 08:53:22;;;;;;;0.30;0.30;;;5.40;92.80;;;;;;5031107;28;20041;-88
2020/12/27 08:55:48;;;;;;;0.40;0.20;;;5.40;92.90;;;;;;5029650;28;20136;-87
2020/12/27 08:58:14;;;;;;;0.30;0.30;;;5.40;92.80;;;;;;5029876;28;20560;-88
2020/12/27 09:00:39;;;;;;;0.95;0.70;;;5.40;92.90;;;;;;5031682;28;20485;-88
2020/12/27 09:03:06;;;;;;;1.63;1.05;;;5.40;92.90;;;;;;5044822;28;20085;-89
2020/12/27 09:05:34;;;;;;;0.60;0.60;;;5.40;92.90;;;;;;5029892;28;20056;-87
2020/12/27 09:08:00;;;;;;;0.93;0.50;;;5.40;92.80;;;;;;5045439;28;20127;-88
2020/12/27 09:10:29;;;;;;;0.85;0.60;;;5.40;92.90;;;;;;5030638;28;20489;-85
2020/12/27 09:13:07;;;;;;;0.40;0.40;;;5.40;92.80;;;;;;5028736;28;20041;-87
2020/12/27 09:15:37;;;;;;;0.50;0.50;;;5.40;92.90;;;;;;5028819;28;20115;-87
2020/12/27 09:18:13;;;;;;;0.88;0.50;;;5.40;92.80;;;;;;5031179;28;20477;-87
2020/12/27 09:20:46;;;;;;;0.77;0.57;;;5.40;92.80;;;;;;5029787;28;20058;-88
2020/12/27 09:23:19;;;;;;;0.43;0.30;;;5.40;92.90;;;;;;5029579;28;20527;-85
2020/12/27 09:25:47;;;;;;;0.30;0.30;;;5.40;92.90;;;;;;5029796;28;20045;-86
2020/12/27 09:28:18;;;;;;;1.10;0.30;;;5.40;92.80;;;;;;5029352;28;20046;-86
2020/12/27 09:31:04;;;;;;;0.20;0.20;;;5.40;92.80;;;;;;5029704;28;20053;-86
2020/12/27 09:33:38;;;;;;;0.30;0.30;;;5.40;92.80;;;;;;5012575;28;20045;-88
2020/12/27 09:36:05;;;;;;;0.20;0.20;;;5.40;92.80;;;;;;5041393;28;20050;-88
2020/12/27 09:38:38;;;;;;;0.30;0.30;;;5.50;92.70;;;;;;5024746;28;20130;-86
2020/12/27 09:41:20;;;;;;;0.25;0.25;;;5.50;92.80;;;;;;5028740;28;20529;-88
2020/12/27 09:43:53;;;;;;;0.30;0.30;;;5.50;92.70;;;;;;5030537;28;20053;-87
2020/12/27 09:46:37;;;;;;;0.20;0.20;;;5.50;92.70;;;;;;5029262;28;20044;-88
2020/12/27 09:49:24;;;;;;;0.20;0.20;;;5.50;92.60;;;;;;5028440;28;20046;-86
2020/12/27 09:52:04;;;;;;;0.40;0.20;;;5.50;92.50;;;;;;5017018;28;20037;-89
2020/12/27 09:54:35;;;;;;;0.30;0.20;;;5.50;92.50;;;;;;5030383;28;20055;-87
2020/12/27 09:57:24;;;;;;;0.20;0.20;;;5.50;92.40;;;;;;5028412;28;20041;-89
2020/12/27 09:59:52;;;;;;;0.35;0.20;;;5.60;92.30;;;;;;5018065;28;20136;-86
2020/12/27 10:02:20;;;;;;;0.10;0.10;;;5.60;92.30;;;;;;5029777;28;20045;-89
2020/12/27 10:04:46;;;;;;;0.15;0.15;;;5.60;92.40;;;;;;5029042;28;20049;-89
2020/12/27 10:07:12;;;;;;;0.30;0.30;;;5.60;92.40;;;;;;5028282;28;20052;-85
2020/12/27 10:09:38;;;;;;;0.30;0.20;;;5.60;92.30;;;;;;5030458;28;20397;-83
2020/12/27 10:12:04;;;;;;;0.20;0.20;;;5.70;92.30;;;;;;5027860;28;20053;-88
2020/12/27 10:14:31;;;;;;;0.32;0.20;;;5.60;92.20;;;;;;5026789;28;20049;-87
2020/12/27 10:16:57;;;;;;;0.15;0.15;;;5.60;92.30;;;;;;5027017;28;20140;-88
2020/12/27 10:19:24;;;;;;;0.43;0.20;;;5.60;92.30;;;;;;5027522;28;20046;-88
2020/12/27 10:21:50;;;;;;;0.65;0.20;;;5.60;92.20;;;;;;5039076;28;20116;-82
2020/12/27 10:24:16;;;;;;;0.70;0.60;;;5.60;92.20;;;;;;5027951;28;20494;-87
2020/12/27 10:26:47;;;;;;;1.20;0.90;;;5.70;92.10;;;;;;5042417;28;20049;-87
2020/12/27 10:29:13;;;;;;;0.50;0.45;;;5.70;92.10;;;;;;5026736;28;20045;-88
2020/12/27 10:31:39;;;;;;;0.60;0.60;;;5.70;92.10;;;;;;5029815;28;20107;-87
2020/12/27 10:34:05;;;;;;;0.30;0.30;;;5.80;92.10;;;;;;5027893;28;20140;-88
2020/12/27 10:36:30;;;;;;;0.20;0.20;;;5.70;92.00;;;;;;5026041;28;20409;-87
2020/12/27 10:38:56;;;;;;;0.52;0.28;;;5.70;91.80;;;;;;5036386;28;20120;-87
2020/12/27 10:41:22;;;;;;;0.20;0.20;;;5.80;91.80;;;;;;5027453;28;20091;-87
2020/12/27 10:43:50;;;;;;;0.47;0.30;;;5.80;91.80;;;;;;5026802;28;20044;-87
2020/12/27 10:46:20;;;;;;;0.30;0.20;;;5.80;91.90;;;;;;5029163;28;20056;-91
2020/12/27 10:48:47;;;;;;;0.45;0.30;;;5.80;91.80;;;;;;5028044;28;20108;-88
2020/12/27 10:51:13;;;;;;;0.50;0.30;;;5.80;91.80;;;;;;5025609;28;20087;-90
2020/12/27 10:53:39;;;;;;;0.32;0.32;;;5.80;91.90;;;;;;5027330;28;20400;-88
2020/12/27 10:56:06;;;;;;;0.30;0.22;;;5.80;91.90;;;;;;5028131;28;20049;-88
2020/12/27 10:58:32;;;;;;;0.30;0.30;;;5.80;91.80;;;;;;5027840;28;20049;-88
2020/12/27 11:00:58;;;;;;;0.60;0.30;;;5.80;91.80;;;;;;5040953;28;20499;-89
2020/12/27 11:03:24;;;;;;;0.30;0.30;;;5.80;91.80;;;;;;5042355;28;20465;-87
2020/12/27 11:05:49;;;;;;;0.80;0.30;;;5.90;91.90;;;;;;5031392;28;20084;-90
2020/12/27 11:08:15;;;;;;;0.30;0.30;;;5.90;91.80;;;;;;5018272;28;20073;-87
2020/12/27 11:10:45;;;;;;;0.50;0.50;;;5.80;92.20;;;;;;5028456;28;20484;-87
2020/12/27 11:13:10;;;;;;;0.30;0.30;;;5.90;91.90;;;;;;5026273;28;20075;-87
2020/12/27 11:15:37;;;;;;;0.30;0.30;;;5.90;92.00;;;;;;5026381;28;20045;-90
2020/12/27 11:18:03;;;;;;;0.80;0.35;;;5.90;91.90;;;;;;5027172;28;20053;-91
2020/12/27 11:20:29;;;;;;;0.40;0.40;;;5.90;91.70;;;;;;5027642;28;20140;-89
2020/12/27 11:22:56;;;;;;;0.40;0.30;;;5.90;91.80;;;;;;5027096;28;20051;-86
2020/12/27 11:25:22;;;;;;;0.30;0.30;;;5.90;91.80;;;;;;5028742;28;20039;-86
2020/12/27 11:27:48;;;;;;;0.40;0.35;;;5.90;91.90;;;;;;5037794;28;20045;-88
2020/12/27 11:30:14;;;;;;;0.40;0.38;;;5.90;91.90;;;;;;5026327;28;20266;-87
2020/12/27 11:32:40;;;;;;;0.30;0.30;;;5.90;92.00;;;;;;5043412;28;20604;-87
2020/12/27 11:35:05;;;;;;;0.20;0.20;;;5.90;92.00;;;;;;5023295;28;20064;-87
2020/12/27 11:37:31;;;;;;;0.30;0.30;;;5.90;92.10;;;;;;5025679;28;22620;-86
2020/12/27 11:39:57;;;;;;;0.77;0.20;;;5.90;92.10;;;;;;5027613;28;20064;-85
2020/12/27 11:42:27;;;;;;;1.08;0.40;;;5.90;92.10;;;;;;5031853;28;20041;-87
2020/12/27 11:44:53;;;;;;;0.57;0.50;;;5.90;92.10;;;;;;5041620;28;20076;-84
2020/12/27 11:47:19;;;;;;;0.40;0.40;;;6.00;92.10;;;;;;5032932;28;20052;-87
2020/12/27 11:49:45;;;;;;;0.90;0.40;;;5.90;92.10;;;;;;5023144;28;20033;-87
2020/12/27 11:52:11;;;;;;;0.55;0.45;;;5.90;92.20;;;;;;5026167;28;20038;-87
2020/12/27 11:54:37;;;;;;;0.30;0.30;;;6.00;92.20;;;;;;5026964;28;20091;-84
2020/12/27 11:57:03;;;;;;;0.30;0.30;;;5.90;92.30;;;;;;5027374;28;20049;-87
2020/12/27 11:59:29;;;;;;;0.30;0.30;;;5.90;92.30;;;;;;5041699;28;20057;-86
2020/12/27 12:01:54;;;;;;;0.20;0.13;;;5.90;92.30;;;;;;5043850;28;20477;-83
2020/12/27 12:04:20;;;;;;;0.20;0.20;;;5.90;92.20;;;;;;5027832;28;20107;-86
2020/12/27 12:06:46;;;;;;;0.28;0.20;;;5.90;92.20;;;;;;5027552;28;20053;-87
2020/12/27 12:09:12;;;;;;;0.45;0.40;;;6.00;92.20;;;;;;5016286;28;20565;-81
2020/12/27 12:11:41;;;;;;;0.60;0.30;;;5.90;92.10;;;;;;5031515;28;20140;-84
2020/12/27 12:14:08;;;;;;;0.40;0.40;;;6.00;92.20;;;;;;5029553;28;20052;-84
2020/12/27 12:16:35;;;;;;;0.38;0.38;;;6.00;92.10;;;;;;5029165;28;20132;-86
2020/12/27 12:19:02;;;;;;;0.50;0.43;;;6.00;92.10;;;;;;5031995;28;20133;-85
2020/12/27 12:21:28;;;;;;;0.70;0.40;;;5.90;92.10;;;;;;5040232;28;20048;-85
2020/12/27 12:23:55;;;;;;;0.85;0.50;;;6.00;92.20;;;;;;5030116;28;20084;-84
2020/12/27 12:26:22;;;;;;;0.50;0.40;;;6.00;92.20;;;;;;5030833;28;20107;-86
2020/12/27 12:28:48;;;;;;;0.75;0.40;;;6.00;92.20;;;;;;5024580;28;20049;-86
2020/12/27 12:31:15;;;;;;;0.32;0.32;;;6.00;92.60;;;;;;5020504;28;20046;-85
2020/12/27 12:33:41;;;;;;;0.52;0.30;;;6.00;92.20;;;;;;5031549;28;20124;-84
2020/12/27 12:36:11;;;;;;;0.57;0.57;;;6.00;92.20;;;;;;5027376;28;20091;-86
2020/12/27 12:38:36;;;;;;;0.60;0.60;;;6.00;92.20;;;;;;5029599;28;20099;-86
2020/12/27 12:41:03;;;;;;;1.00;0.68;;;6.00;92.30;;;;;;5029985;28;20061;-84
2020/12/27 12:43:30;;;;;;;0.32;0.30;;;5.90;92.30;;;;;;5029537;28;20055;-87
2020/12/27 12:45:59;;;;;;;0.32;0.32;;;5.90;92.30;;;;;;5044116;28;20089;-82
2020/12/27 12:48:25;;;;;;;0.30;0.30;;;6.00;92.30;;;;;;5019360;28;20390;-85
2020/12/27 12:50:51;;;;;;;0.38;0.30;;;6.00;92.10;;;;;;5023850;28;20061;-85
2020/12/27 12:53:17;;;;;;;0.52;0.40;;;6.00;92.30;;;;;;5016795;28;20273;-85
2020/12/27 12:55:44;;;;;;;0.25;0.25;;;6.00;92.30;;;;;;5015537;28;20974;-83
2020/12/27 12:58:10;;;;;;;0.30;0.30;;;6.00;92.30;;;;;;5037530;28;20557;-84
2020/12/27 13:00:36;;;;;;;0.40;0.40;;;6.00;92.40;;;;;;5028471;28;20132;-86
2020/12/27 13:03:02;;;;;;;0.55;0.35;;;5.90;92.30;;;;;;5029301;28;20491;-85
2020/12/27 13:05:28;;;;;;;0.60;0.40;;;5.90;92.40;;;;;;5028215;28;20511;-85